sensor_id;sensor_type;location;lat;lon;timestamp;P1;durP1;ratioP1;P2;durP2;ratioP2
40883;SDS011;26602;50.930;6.940;2022-07-23T00:00:14;16.88;;;6.07;;
40883;SDS011;26602;50.930;6.940;2022-07-23T00:01:15;16.88;;;6.70;;
40883;SDS011;26602;50.930;6.940;2022-07-23T00:02:17;17.48;;;6.78;;
40883;SDS011;26602;50.930;6.940;2022-07-23T00:03:19;17.60;;;6.88;;
40883;SDS011;26602;50.930;6.940;2022-07-23T00:04:21;17.33;;;6.53;;
40883;SDS011;26602;50.930;6.940;2022-07-23T00:05:22;17.13;;;6.53;;
40883;SDS011;26602;50.930;6.940;2022-07-23T00:06:24;17.30;;;6.65;;
40883;SDS011;26602;50.930;6.940;2022-07-23T00:07:26;16.33;;;5.85;;
40883;SDS011;26602;50.930;6.940;2022-07-23T00:08:28;17.35;;;6.65;;
40883;SDS011;26602;50.930;6.940;2022-07-23T00:09:29;17.27;;;6.78;;
40883;SDS011;26602;50.930;6.940;2022-07-23T00:10:31;17.23;;;6.45;;
40883;SDS011;26602;50.930;6.940;2022-07-23T00:11:32;17.50;;;6.82;;
40883;SDS011;26602;50.930;6.940;2022-07-23T00:12:35;17.52;;;6.85;;
40883;SDS011;26602;50.930;6.940;2022-07-23T00:13:36;17.60;;;6.90;;
40883;SDS011;26602;50.930;6.940;2022-07-23T00:14:40;17.50;;;7.15;;
40883;SDS011;26602;50.930;6.940;2022-07-23T00:15:41;17.27;;;6.55;;
40883;SDS011;26602;50.930;6.940;2022-07-23T00:16:43;17.30;;;6.88;;
40883;SDS011;26602;50.930;6.940;2022-07-23T00:17:45;17.48;;;6.72;;
40883;SDS011;26602;50.930;6.940;2022-07-23T00:18:47;17.17;;;6.75;;
40883;SDS011;26602;50.930;6.940;2022-07-23T00:19:48;16.42;;;6.28;;
40883;SDS011;26602;50.930;6.940;2022-07-23T00:20:50;17.02;;;6.32;;
40883;SDS011;26602;50.930;6.940;2022-07-23T00:21:52;16.80;;;6.28;;
40883;SDS011;26602;50.930;6.940;2022-07-23T00:22:54;16.75;;;6.38;;
40883;SDS011;26602;50.930;6.940;2022-07-23T00:23:56;17.52;;;6.68;;
40883;SDS011;26602;50.930;6.940;2022-07-23T00:24:58;17.38;;;6.70;;
40883;SDS011;26602;50.930;6.940;2022-07-23T00:25:59;16.48;;;6.22;;
40883;SDS011;26602;50.930;6.940;2022-07-23T00:27:01;16.85;;;6.32;;
40883;SDS011;26602;50.930;6.940;2022-07-23T00:28:02;17.38;;;7.00;;
40883;SDS011;26602;50.930;6.940;2022-07-23T00:29:05;18.77;;;6.97;;
40883;SDS011;26602;50.930;6.940;2022-07-23T00:30:08;17.13;;;6.63;;
40883;SDS011;26602;50.930;6.940;2022-07-23T00:31:10;18.15;;;6.93;;
40883;SDS011;26602;50.930;6.940;2022-07-23T00:32:12;17.45;;;6.65;;
40883;SDS011;26602;50.930;6.940;2022-07-23T00:33:14;17.73;;;6.93;;
40883;SDS011;26602;50.930;6.940;2022-07-23T00:34:15;16.20;;;6.15;;
40883;SDS011;26602;50.930;6.940;2022-07-23T00:35:19;18.17;;;6.50;;
40883;SDS011;26602;50.930;6.940;2022-07-23T00:36:20;16.88;;;6.53;;
40883;SDS011;26602;50.930;6.940;2022-07-23T00:37:23;16.77;;;6.40;;
40883;SDS011;26602;50.930;6.940;2022-07-23T00:38:24;16.85;;;6.07;;
40883;SDS011;26602;50.930;6.940;2022-07-23T00:39:26;16.63;;;6.20;;
40883;SDS011;26602;50.930;6.940;2022-07-23T00:40:28;17.30;;;6.82;;
40883;SDS011;26602;50.930;6.940;2022-07-23T00:41:30;17.30;;;6.47;;
40883;SDS011;26602;50.930;6.940;2022-07-23T00:42:32;16.77;;;6.43;;
40883;SDS011;26602;50.930;6.940;2022-07-23T00:43:34;17.80;;;6.88;;
40883;SDS011;26602;50.930;6.940;2022-07-23T00:44:35;16.77;;;6.43;;
40883;SDS011;26602;50.930;6.940;2022-07-23T00:45:39;15.82;;;6.10;;
40883;SDS011;26602;50.930;6.940;2022-07-23T00:46:44;16.90;;;6.40;;
40883;SDS011;26602;50.930;6.940;2022-07-23T00:47:47;17.63;;;6.47;;
40883;SDS011;26602;50.930;6.940;2022-07-23T00:48:48;17.50;;;6.80;;
40883;SDS011;26602;50.930;6.940;2022-07-23T00:49:50;17.55;;;6.65;;
40883;SDS011;26602;50.930;6.940;2022-07-23T00:50:51;16.95;;;6.38;;
40883;SDS011;26602;50.930;6.940;2022-07-23T00:51:54;19.05;;;6.65;;
40883;SDS011;26602;50.930;6.940;2022-07-23T00:52:55;17.65;;;6.68;;
40883;SDS011;26602;50.930;6.940;2022-07-23T00:53:58;17.67;;;6.80;;
40883;SDS011;26602;50.930;6.940;2022-07-23T00:55:00;16.70;;;6.05;;
40883;SDS011;26602;50.930;6.940;2022-07-23T00:56:02;16.77;;;6.35;;
40883;SDS011;26602;50.930;6.940;2022-07-23T00:57:04;16.70;;;6.28;;
40883;SDS011;26602;50.930;6.940;2022-07-23T00:58:06;16.48;;;6.38;;
40883;SDS011;26602;50.930;6.940;2022-07-23T00:59:07;17.00;;;6.78;;
40883;SDS011;26602;50.930;6.940;2022-07-23T01:00:11;16.70;;;6.35;;
40883;SDS011;26602;50.930;6.940;2022-07-23T01:01:14;17.23;;;6.65;;
40883;SDS011;26602;50.930;6.940;2022-07-23T01:02:16;16.77;;;6.38;;
40883;SDS011;26602;50.930;6.940;2022-07-23T01:03:17;17.35;;;6.57;;
40883;SDS011;26602;50.930;6.940;2022-07-23T01:04:19;17.17;;;6.35;;
40883;SDS011;26602;50.930;6.940;2022-07-23T01:05:21;17.13;;;6.45;;
40883;SDS011;26602;50.930;6.940;2022-07-23T01:06:23;17.27;;;6.53;;
40883;SDS011;26602;50.930;6.940;2022-07-23T01:07:24;17.30;;;6.90;;
40883;SDS011;26602;50.930;6.940;2022-07-23T01:08:26;16.67;;;6.47;;
40883;SDS011;26602;50.930;6.940;2022-07-23T01:09:28;16.77;;;6.35;;
40883;SDS011;26602;50.930;6.940;2022-07-23T01:10:30;16.33;;;6.10;;
40883;SDS011;26602;50.930;6.940;2022-07-23T01:11:31;16.85;;;6.57;;
40883;SDS011;26602;50.930;6.940;2022-07-23T01:12:34;17.65;;;6.38;;
40883;SDS011;26602;50.930;6.940;2022-07-23T01:13:36;17.10;;;6.30;;
40883;SDS011;26602;50.930;6.940;2022-07-23T01:14:38;16.65;;;5.93;;
40883;SDS011;26602;50.930;6.940;2022-07-23T01:15:39;17.13;;;6.43;;
40883;SDS011;26602;50.930;6.940;2022-07-23T01:16:43;17.02;;;6.72;;
40883;SDS011;26602;50.930;6.940;2022-07-23T01:17:45;16.90;;;6.18;;
40883;SDS011;26602;50.930;6.940;2022-07-23T01:18:47;16.35;;;5.75;;
40883;SDS011;26602;50.930;6.940;2022-07-23T01:19:48;17.25;;;6.50;;
40883;SDS011;26602;50.930;6.940;2022-07-23T01:20:50;18.80;;;6.90;;
40883;SDS011;26602;50.930;6.940;2022-07-23T01:21:52;16.75;;;6.40;;
40883;SDS011;26602;50.930;6.940;2022-07-23T01:22:56;17.08;;;6.53;;
40883;SDS011;26602;50.930;6.940;2022-07-23T01:23:57;16.92;;;6.07;;
40883;SDS011;26602;50.930;6.940;2022-07-23T01:24:59;16.20;;;6.03;;
40883;SDS011;26602;50.930;6.940;2022-07-23T01:26:01;17.23;;;6.35;;
40883;SDS011;26602;50.930;6.940;2022-07-23T01:27:03;17.30;;;6.20;;
40883;SDS011;26602;50.930;6.940;2022-07-23T01:28:05;17.35;;;6.65;;
40883;SDS011;26602;50.930;6.940;2022-07-23T01:29:07;17.10;;;6.72;;
40883;SDS011;26602;50.930;6.940;2022-07-23T01:30:09;17.00;;;6.10;;
40883;SDS011;26602;50.930;6.940;2022-07-23T01:31:11;16.58;;;6.43;;
40883;SDS011;26602;50.930;6.940;2022-07-23T01:32:13;17.33;;;6.63;;
40883;SDS011;26602;50.930;6.940;2022-07-23T01:33:14;16.88;;;6.60;;
40883;SDS011;26602;50.930;6.940;2022-07-23T01:34:17;16.60;;;6.22;;
40883;SDS011;26602;50.930;6.940;2022-07-23T01:35:18;16.65;;;5.90;;
40883;SDS011;26602;50.930;6.940;2022-07-23T01:36:20;16.33;;;6.20;;
40883;SDS011;26602;50.930;6.940;2022-07-23T01:37:21;16.52;;;6.45;;
40883;SDS011;26602;50.930;6.940;2022-07-23T01:38:25;16.70;;;6.25;;
40883;SDS011;26602;50.930;6.940;2022-07-23T01:39:26;16.92;;;6.22;;
40883;SDS011;26602;50.930;6.940;2022-07-23T01:40:28;17.00;;;6.22;;
40883;SDS011;26602;50.930;6.940;2022-07-23T01:41:29;16.85;;;6.20;;
40883;SDS011;26602;50.930;6.940;2022-07-23T01:42:32;17.15;;;6.60;;
40883;SDS011;26602;50.930;6.940;2022-07-23T01:43:33;17.63;;;6.38;;
40883;SDS011;26602;50.930;6.940;2022-07-23T01:44:35;16.83;;;6.03;;
40883;SDS011;26602;50.930;6.940;2022-07-23T01:45:36;15.98;;;5.47;;
40883;SDS011;26602;50.930;6.940;2022-07-23T01:46:39;16.65;;;6.22;;
40883;SDS011;26602;50.930;6.940;2022-07-23T01:47:40;17.50;;;6.18;;
40883;SDS011;26602;50.930;6.940;2022-07-23T01:48:42;17.10;;;6.60;;
40883;SDS011;26602;50.930;6.940;2022-07-23T01:49:44;17.10;;;6.05;;
40883;SDS011;26602;50.930;6.940;2022-07-23T01:50:45;16.92;;;6.25;;
40883;SDS011;26602;50.930;6.940;2022-07-23T01:51:48;18.00;;;7.10;;
40883;SDS011;26602;50.930;6.940;2022-07-23T01:53:02;16.75;;;6.22;;
40883;SDS011;26602;50.930;6.940;2022-07-23T01:54:05;17.83;;;6.43;;
40883;SDS011;26602;50.930;6.940;2022-07-23T01:55:07;15.80;;;5.82;;
40883;SDS011;26602;50.930;6.940;2022-07-23T01:56:09;16.52;;;5.95;;
40883;SDS011;26602;50.930;6.940;2022-07-23T01:57:10;16.85;;;6.40;;
40883;SDS011;26602;50.930;6.940;2022-07-23T01:58:12;16.77;;;6.32;;
40883;SDS011;26602;50.930;6.940;2022-07-23T01:59:13;17.25;;;6.47;;
40883;SDS011;26602;50.930;6.940;2022-07-23T02:00:16;17.27;;;6.10;;
40883;SDS011;26602;50.930;6.940;2022-07-23T02:01:17;16.02;;;5.65;;
40883;SDS011;26602;50.930;6.940;2022-07-23T02:02:19;17.42;;;6.22;;
40883;SDS011;26602;50.930;6.940;2022-07-23T02:03:20;16.30;;;5.90;;
40883;SDS011;26602;50.930;6.940;2022-07-23T02:04:23;16.70;;;6.45;;
40883;SDS011;26602;50.930;6.940;2022-07-23T02:05:25;15.98;;;5.68;;
40883;SDS011;26602;50.930;6.940;2022-07-23T02:06:28;16.10;;;5.65;;
40883;SDS011;26602;50.930;6.940;2022-07-23T02:07:29;16.92;;;6.20;;
40883;SDS011;26602;50.930;6.940;2022-07-23T02:08:32;16.90;;;6.20;;
40883;SDS011;26602;50.930;6.940;2022-07-23T02:09:34;17.05;;;6.47;;
40883;SDS011;26602;50.930;6.940;2022-07-23T02:10:36;16.05;;;5.78;;
40883;SDS011;26602;50.930;6.940;2022-07-23T02:11:38;16.70;;;5.93;;
40883;SDS011;26602;50.930;6.940;2022-07-23T02:12:40;16.42;;;6.03;;
40883;SDS011;26602;50.930;6.940;2022-07-23T02:13:41;16.25;;;5.80;;
40883;SDS011;26602;50.930;6.940;2022-07-23T02:14:43;17.58;;;6.00;;
40883;SDS011;26602;50.930;6.940;2022-07-23T02:15:45;16.50;;;6.10;;
40883;SDS011;26602;50.930;6.940;2022-07-23T02:16:47;16.63;;;5.82;;
40883;SDS011;26602;50.930;6.940;2022-07-23T02:17:48;16.98;;;6.00;;
40883;SDS011;26602;50.930;6.940;2022-07-23T02:18:50;16.42;;;5.95;;
40883;SDS011;26602;50.930;6.940;2022-07-23T02:19:51;16.83;;;6.07;;
40883;SDS011;26602;50.930;6.940;2022-07-23T02:20:53;16.73;;;6.05;;
40883;SDS011;26602;50.930;6.940;2022-07-23T02:21:55;15.95;;;5.72;;
40883;SDS011;26602;50.930;6.940;2022-07-23T02:22:57;16.02;;;6.00;;
40883;SDS011;26602;50.930;6.940;2022-07-23T02:23:58;16.95;;;5.85;;
40883;SDS011;26602;50.930;6.940;2022-07-23T02:25:02;17.33;;;6.22;;
40883;SDS011;26602;50.930;6.940;2022-07-23T02:26:03;16.42;;;6.07;;
40883;SDS011;26602;50.930;6.940;2022-07-23T02:27:05;17.48;;;6.35;;
40883;SDS011;26602;50.930;6.940;2022-07-23T02:28:06;15.80;;;5.68;;
40883;SDS011;26602;50.930;6.940;2022-07-23T02:29:09;16.63;;;6.30;;
40883;SDS011;26602;50.930;6.940;2022-07-23T02:30:10;16.50;;;5.85;;
40883;SDS011;26602;50.930;6.940;2022-07-23T02:31:13;16.08;;;5.72;;
40883;SDS011;26602;50.930;6.940;2022-07-23T02:32:14;15.77;;;5.72;;
40883;SDS011;26602;50.930;6.940;2022-07-23T02:33:16;16.23;;;6.00;;
40883;SDS011;26602;50.930;6.940;2022-07-23T02:34:17;15.60;;;5.60;;
40883;SDS011;26602;50.930;6.940;2022-07-23T02:35:19;16.50;;;5.50;;
40883;SDS011;26602;50.930;6.940;2022-07-23T02:36:21;16.52;;;5.90;;
40883;SDS011;26602;50.930;6.940;2022-07-23T02:37:23;16.60;;;6.10;;
40883;SDS011;26602;50.930;6.940;2022-07-23T02:38:24;16.52;;;5.70;;
40883;SDS011;26602;50.930;6.940;2022-07-23T02:39:26;16.23;;;5.90;;
40883;SDS011;26602;50.930;6.940;2022-07-23T02:40:29;16.10;;;6.00;;
40883;SDS011;26602;50.930;6.940;2022-07-23T02:41:31;16.52;;;5.88;;
40883;SDS011;26602;50.930;6.940;2022-07-23T02:42:32;16.75;;;6.20;;
40883;SDS011;26602;50.930;6.940;2022-07-23T02:43:35;16.95;;;6.05;;
40883;SDS011;26602;50.930;6.940;2022-07-23T02:44:36;16.27;;;6.15;;
40883;SDS011;26602;50.930;6.940;2022-07-23T02:45:38;15.95;;;5.60;;
40883;SDS011;26602;50.930;6.940;2022-07-23T02:46:39;16.27;;;5.88;;
40883;SDS011;26602;50.930;6.940;2022-07-23T02:47:41;16.38;;;5.85;;
40883;SDS011;26602;50.930;6.940;2022-07-23T02:48:43;16.40;;;5.72;;
40883;SDS011;26602;50.930;6.940;2022-07-23T02:49:45;16.65;;;5.93;;
40883;SDS011;26602;50.930;6.940;2022-07-23T02:50:46;15.43;;;5.43;;
40883;SDS011;26602;50.930;6.940;2022-07-23T02:51:48;15.80;;;5.80;;
40883;SDS011;26602;50.930;6.940;2022-07-23T02:52:49;16.40;;;5.90;;
40883;SDS011;26602;50.930;6.940;2022-07-23T02:53:52;16.52;;;5.70;;
40883;SDS011;26602;50.930;6.940;2022-07-23T02:54:53;16.15;;;5.70;;
40883;SDS011;26602;50.930;6.940;2022-07-23T02:55:56;16.35;;;5.75;;
40883;SDS011;26602;50.930;6.940;2022-07-23T02:56:58;16.67;;;6.05;;
40883;SDS011;26602;50.930;6.940;2022-07-23T02:58:00;16.08;;;5.50;;
40883;SDS011;26602;50.930;6.940;2022-07-23T02:59:01;16.02;;;5.70;;
40883;SDS011;26602;50.930;6.940;2022-07-23T03:00:04;15.50;;;5.85;;
40883;SDS011;26602;50.930;6.940;2022-07-23T03:01:05;16.48;;;5.68;;
40883;SDS011;26602;50.930;6.940;2022-07-23T03:02:07;15.98;;;5.78;;
40883;SDS011;26602;50.930;6.940;2022-07-23T03:03:09;16.33;;;5.65;;
40883;SDS011;26602;50.930;6.940;2022-07-23T03:04:11;16.42;;;5.68;;
40883;SDS011;26602;50.930;6.940;2022-07-23T03:05:12;16.27;;;5.75;;
40883;SDS011;26602;50.930;6.940;2022-07-23T03:06:14;16.58;;;6.00;;
40883;SDS011;26602;50.930;6.940;2022-07-23T03:07:16;16.40;;;5.57;;
40883;SDS011;26602;50.930;6.940;2022-07-23T03:08:18;16.52;;;5.88;;
40883;SDS011;26602;50.930;6.940;2022-07-23T03:09:19;15.65;;;6.05;;
40883;SDS011;26602;50.930;6.940;2022-07-23T03:10:21;15.52;;;5.43;;
40883;SDS011;26602;50.930;6.940;2022-07-23T03:11:24;15.43;;;5.10;;
40883;SDS011;26602;50.930;6.940;2022-07-23T03:12:26;16.17;;;5.72;;
40883;SDS011;26602;50.930;6.940;2022-07-23T03:13:27;16.77;;;6.07;;
40883;SDS011;26602;50.930;6.940;2022-07-23T03:14:29;16.15;;;5.70;;
40883;SDS011;26602;50.930;6.940;2022-07-23T03:15:31;16.70;;;5.72;;
40883;SDS011;26602;50.930;6.940;2022-07-23T03:16:33;16.50;;;6.13;;
40883;SDS011;26602;50.930;6.940;2022-07-23T03:17:34;15.95;;;5.55;;
40883;SDS011;26602;50.930;6.940;2022-07-23T03:18:36;16.00;;;5.70;;
40883;SDS011;26602;50.930;6.940;2022-07-23T03:19:37;16.25;;;5.68;;
40883;SDS011;26602;50.930;6.940;2022-07-23T03:20:39;16.05;;;5.57;;
40883;SDS011;26602;50.930;6.940;2022-07-23T03:21:41;16.42;;;5.78;;
40883;SDS011;26602;50.930;6.940;2022-07-23T03:22:43;15.68;;;5.13;;
40883;SDS011;26602;50.930;6.940;2022-07-23T03:23:44;16.15;;;5.50;;
40883;SDS011;26602;50.930;6.940;2022-07-23T03:24:46;16.17;;;5.57;;
40883;SDS011;26602;50.930;6.940;2022-07-23T03:25:53;15.40;;;5.07;;
40883;SDS011;26602;50.930;6.940;2022-07-23T03:26:57;16.08;;;6.10;;
40883;SDS011;26602;50.930;6.940;2022-07-23T03:27:58;15.70;;;5.75;;
40883;SDS011;26602;50.930;6.940;2022-07-23T03:29:00;15.88;;;5.53;;
40883;SDS011;26602;50.930;6.940;2022-07-23T03:30:03;15.80;;;5.88;;
40883;SDS011;26602;50.930;6.940;2022-07-23T03:31:06;15.40;;;5.18;;
40883;SDS011;26602;50.930;6.940;2022-07-23T03:32:07;16.05;;;5.40;;
40883;SDS011;26602;50.930;6.940;2022-07-23T03:33:09;15.65;;;4.97;;
40883;SDS011;26602;50.930;6.940;2022-07-23T03:34:10;16.67;;;5.88;;
40883;SDS011;26602;50.930;6.940;2022-07-23T03:35:13;16.08;;;5.72;;
40883;SDS011;26602;50.930;6.940;2022-07-23T03:36:14;16.05;;;5.68;;
40883;SDS011;26602;50.930;6.940;2022-07-23T03:37:16;16.50;;;6.00;;
40883;SDS011;26602;50.930;6.940;2022-07-23T03:38:17;16.38;;;5.72;;
40883;SDS011;26602;50.930;6.940;2022-07-23T03:39:20;16.55;;;5.75;;
40883;SDS011;26602;50.930;6.940;2022-07-23T03:40:21;16.00;;;5.50;;
40883;SDS011;26602;50.930;6.940;2022-07-23T03:41:23;16.20;;;5.45;;
40883;SDS011;26602;50.930;6.940;2022-07-23T03:42:26;16.23;;;5.63;;
40883;SDS011;26602;50.930;6.940;2022-07-23T03:43:28;15.98;;;5.63;;
40883;SDS011;26602;50.930;6.940;2022-07-23T03:44:30;16.52;;;5.70;;
40883;SDS011;26602;50.930;6.940;2022-07-23T03:45:32;16.08;;;5.53;;
40883;SDS011;26602;50.930;6.940;2022-07-23T03:46:33;16.77;;;5.53;;
40883;SDS011;26602;50.930;6.940;2022-07-23T03:47:35;16.17;;;5.65;;
40883;SDS011;26602;50.930;6.940;2022-07-23T03:48:37;16.83;;;5.75;;
40883;SDS011;26602;50.930;6.940;2022-07-23T03:49:39;15.85;;;5.40;;
40883;SDS011;26602;50.930;6.940;2022-07-23T03:50:40;17.42;;;5.53;;
40883;SDS011;26602;50.930;6.940;2022-07-23T03:51:42;16.15;;;5.68;;
40883;SDS011;26602;50.930;6.940;2022-07-23T03:52:43;16.48;;;5.80;;
40883;SDS011;26602;50.930;6.940;2022-07-23T03:53:45;16.30;;;5.65;;
40883;SDS011;26602;50.930;6.940;2022-07-23T03:54:49;16.65;;;5.80;;
40883;SDS011;26602;50.930;6.940;2022-07-23T03:55:51;16.10;;;5.50;;
40883;SDS011;26602;50.930;6.940;2022-07-23T03:56:52;16.10;;;5.97;;
40883;SDS011;26602;50.930;6.940;2022-07-23T03:57:56;15.77;;;5.50;;
40883;SDS011;26602;50.930;6.940;2022-07-23T03:58:57;15.55;;;5.50;;
40883;SDS011;26602;50.930;6.940;2022-07-23T03:59:59;15.95;;;5.63;;
40883;SDS011;26602;50.930;6.940;2022-07-23T04:01:01;16.00;;;5.55;;
40883;SDS011;26602;50.930;6.940;2022-07-23T04:02:02;15.98;;;5.93;;
40883;SDS011;26602;50.930;6.940;2022-07-23T04:03:05;15.63;;;5.18;;
40883;SDS011;26602;50.930;6.940;2022-07-23T04:04:06;16.55;;;6.03;;
40883;SDS011;26602;50.930;6.940;2022-07-23T04:05:08;16.20;;;5.40;;
40883;SDS011;26602;50.930;6.940;2022-07-23T04:06:09;16.38;;;5.75;;
40883;SDS011;26602;50.930;6.940;2022-07-23T04:07:12;15.82;;;5.63;;
40883;SDS011;26602;50.930;6.940;2022-07-23T04:08:13;15.77;;;5.28;;
40883;SDS011;26602;50.930;6.940;2022-07-23T04:09:15;16.50;;;5.60;;
40883;SDS011;26602;50.930;6.940;2022-07-23T04:10:17;15.77;;;5.45;;
40883;SDS011;26602;50.930;6.940;2022-07-23T04:11:19;15.23;;;5.00;;
40883;SDS011;26602;50.930;6.940;2022-07-23T04:12:20;15.75;;;5.20;;
40883;SDS011;26602;50.930;6.940;2022-07-23T04:13:24;16.08;;;5.45;;
40883;SDS011;26602;50.930;6.940;2022-07-23T04:14:25;16.00;;;5.72;;
40883;SDS011;26602;50.930;6.940;2022-07-23T04:15:27;15.98;;;5.30;;
40883;SDS011;26602;50.930;6.940;2022-07-23T04:16:29;16.27;;;5.32;;
40883;SDS011;26602;50.930;6.940;2022-07-23T04:17:31;16.05;;;5.20;;
40883;SDS011;26602;50.930;6.940;2022-07-23T04:18:33;16.05;;;5.35;;
40883;SDS011;26602;50.930;6.940;2022-07-23T04:19:35;15.68;;;5.40;;
40883;SDS011;26602;50.930;6.940;2022-07-23T04:20:39;16.23;;;5.85;;
40883;SDS011;26602;50.930;6.940;2022-07-23T04:21:41;15.75;;;5.00;;
40883;SDS011;26602;50.930;6.940;2022-07-23T04:22:43;16.10;;;5.45;;
40883;SDS011;26602;50.930;6.940;2022-07-23T04:23:45;15.95;;;5.13;;
40883;SDS011;26602;50.930;6.940;2022-07-23T04:24:46;15.40;;;5.30;;
40883;SDS011;26602;50.930;6.940;2022-07-23T04:25:49;16.67;;;5.90;;
40883;SDS011;26602;50.930;6.940;2022-07-23T04:26:50;16.17;;;5.60;;
40883;SDS011;26602;50.930;6.940;2022-07-23T04:27:53;15.77;;;5.50;;
40883;SDS011;26602;50.930;6.940;2022-07-23T04:28:55;15.73;;;5.40;;
40883;SDS011;26602;50.930;6.940;2022-07-23T04:29:58;15.57;;;5.20;;
40883;SDS011;26602;50.930;6.940;2022-07-23T04:30:59;15.43;;;5.38;;
40883;SDS011;26602;50.930;6.940;2022-07-23T04:32:01;16.58;;;5.95;;
40883;SDS011;26602;50.930;6.940;2022-07-23T04:33:02;15.82;;;5.43;;
40883;SDS011;26602;50.930;6.940;2022-07-23T04:34:06;15.32;;;5.40;;
40883;SDS011;26602;50.930;6.940;2022-07-23T04:35:08;15.25;;;5.22;;
40883;SDS011;26602;50.930;6.940;2022-07-23T04:36:10;15.65;;;5.38;;
40883;SDS011;26602;50.930;6.940;2022-07-23T04:37:11;15.88;;;5.43;;
40883;SDS011;26602;50.930;6.940;2022-07-23T04:38:13;15.82;;;5.32;;
40883;SDS011;26602;50.930;6.940;2022-07-23T04:39:15;15.65;;;4.95;;
40883;SDS011;26602;50.930;6.940;2022-07-23T04:40:17;15.77;;;5.40;;
40883;SDS011;26602;50.930;6.940;2022-07-23T04:41:18;16.10;;;5.63;;
40883;SDS011;26602;50.930;6.940;2022-07-23T04:42:20;16.90;;;6.28;;
40883;SDS011;26602;50.930;6.940;2022-07-23T04:43:21;15.18;;;5.05;;
40883;SDS011;26602;50.930;6.940;2022-07-23T04:44:25;16.23;;;5.53;;
40883;SDS011;26602;50.930;6.940;2022-07-23T04:45:26;14.80;;;4.80;;
40883;SDS011;26602;50.930;6.940;2022-07-23T04:46:28;15.65;;;5.00;;
40883;SDS011;26602;50.930;6.940;2022-07-23T04:47:29;15.85;;;5.65;;
40883;SDS011;26602;50.930;6.940;2022-07-23T04:48:32;15.90;;;5.40;;
40883;SDS011;26602;50.930;6.940;2022-07-23T04:49:33;15.98;;;5.40;;
40883;SDS011;26602;50.930;6.940;2022-07-23T04:50:35;15.60;;;4.95;;
40883;SDS011;26602;50.930;6.940;2022-07-23T04:51:36;15.18;;;5.00;;
40883;SDS011;26602;50.930;6.940;2022-07-23T04:52:38;15.00;;;4.93;;
40883;SDS011;26602;50.930;6.940;2022-07-23T04:53:39;15.45;;;4.88;;
40883;SDS011;26602;50.930;6.940;2022-07-23T04:54:42;15.32;;;4.97;;
40883;SDS011;26602;50.930;6.940;2022-07-23T04:55:43;15.73;;;5.50;;
40883;SDS011;26602;50.930;6.940;2022-07-23T04:56:45;16.08;;;5.53;;
40883;SDS011;26602;50.930;6.940;2022-07-23T04:57:48;15.45;;;5.47;;
40883;SDS011;26602;50.930;6.940;2022-07-23T04:58:49;16.02;;;5.43;;
40883;SDS011;26602;50.930;6.940;2022-07-23T04:59:52;15.93;;;5.60;;
40883;SDS011;26602;50.930;6.940;2022-07-23T05:00:54;15.50;;;4.85;;
40883;SDS011;26602;50.930;6.940;2022-07-23T05:01:57;15.65;;;5.18;;
40883;SDS011;26602;50.930;6.940;2022-07-23T05:03:00;15.55;;;5.25;;
40883;SDS011;26602;50.930;6.940;2022-07-23T05:04:01;15.63;;;5.13;;
40883;SDS011;26602;50.930;6.940;2022-07-23T05:05:03;16.13;;;5.40;;
40883;SDS011;26602;50.930;6.940;2022-07-23T05:06:05;15.30;;;5.30;;
40883;SDS011;26602;50.930;6.940;2022-07-23T05:07:07;15.52;;;5.38;;
40883;SDS011;26602;50.930;6.940;2022-07-23T05:08:08;16.10;;;5.20;;
40883;SDS011;26602;50.930;6.940;2022-07-23T05:09:10;15.85;;;5.35;;
40883;SDS011;26602;50.930;6.940;2022-07-23T05:10:11;16.23;;;5.53;;
40883;SDS011;26602;50.930;6.940;2022-07-23T05:11:13;15.65;;;5.20;;
40883;SDS011;26602;50.930;6.940;2022-07-23T05:12:15;15.30;;;5.07;;
40883;SDS011;26602;50.930;6.940;2022-07-23T05:13:17;15.30;;;5.25;;
40883;SDS011;26602;50.930;6.940;2022-07-23T05:14:18;16.00;;;5.47;;
40883;SDS011;26602;50.930;6.940;2022-07-23T05:15:22;15.52;;;5.20;;
40883;SDS011;26602;50.930;6.940;2022-07-23T05:16:23;15.45;;;5.38;;
40883;SDS011;26602;50.930;6.940;2022-07-23T05:17:26;16.50;;;5.28;;
40883;SDS011;26602;50.930;6.940;2022-07-23T05:18:27;16.10;;;5.60;;
40883;SDS011;26602;50.930;6.940;2022-07-23T05:19:29;15.65;;;5.13;;
40883;SDS011;26602;50.930;6.940;2022-07-23T05:20:30;15.55;;;4.97;;
40883;SDS011;26602;50.930;6.940;2022-07-23T05:21:32;15.38;;;4.90;;
40883;SDS011;26602;50.930;6.940;2022-07-23T05:22:35;15.55;;;5.38;;
40883;SDS011;26602;50.930;6.940;2022-07-23T05:23:36;16.10;;;5.70;;
40883;SDS011;26602;50.930;6.940;2022-07-23T05:24:38;15.50;;;4.88;;
40883;SDS011;26602;50.930;6.940;2022-07-23T05:25:39;15.75;;;5.50;;
40883;SDS011;26602;50.930;6.940;2022-07-23T05:26:42;16.40;;;5.50;;
40883;SDS011;26602;50.930;6.940;2022-07-23T05:27:43;15.95;;;5.68;;
40883;SDS011;26602;50.930;6.940;2022-07-23T05:28:45;16.30;;;5.38;;
40883;SDS011;26602;50.930;6.940;2022-07-23T05:29:47;16.00;;;5.40;;
40883;SDS011;26602;50.930;6.940;2022-07-23T05:30:50;15.65;;;5.30;;
40883;SDS011;26602;50.930;6.940;2022-07-23T05:31:52;16.38;;;5.25;;
40883;SDS011;26602;50.930;6.940;2022-07-23T05:32:53;15.63;;;5.30;;
40883;SDS011;26602;50.930;6.940;2022-07-23T05:33:55;14.93;;;5.03;;
40883;SDS011;26602;50.930;6.940;2022-07-23T05:34:57;15.25;;;5.10;;
40883;SDS011;26602;50.930;6.940;2022-07-23T05:36:02;16.75;;;5.35;;
40883;SDS011;26602;50.930;6.940;2022-07-23T05:37:03;15.50;;;4.88;;
40883;SDS011;26602;50.930;6.940;2022-07-23T05:38:06;15.50;;;5.22;;
40883;SDS011;26602;50.930;6.940;2022-07-23T05:39:07;15.50;;;5.05;;
40883;SDS011;26602;50.930;6.940;2022-07-23T05:40:10;15.10;;;4.80;;
40883;SDS011;26602;50.930;6.940;2022-07-23T05:41:11;15.77;;;5.07;;
40883;SDS011;26602;50.930;6.940;2022-07-23T05:42:13;15.43;;;5.10;;
40883;SDS011;26602;50.930;6.940;2022-07-23T05:43:14;16.13;;;5.03;;
40883;SDS011;26602;50.930;6.940;2022-07-23T05:44:17;15.48;;;4.78;;
40883;SDS011;26602;50.930;6.940;2022-07-23T05:45:18;16.65;;;5.45;;
40883;SDS011;26602;50.930;6.940;2022-07-23T05:46:21;15.18;;;5.22;;
40883;SDS011;26602;50.930;6.940;2022-07-23T05:47:23;16.00;;;5.10;;
40883;SDS011;26602;50.930;6.940;2022-07-23T05:48:25;15.82;;;5.40;;
40883;SDS011;26602;50.930;6.940;2022-07-23T05:49:26;14.63;;;4.70;;
40883;SDS011;26602;50.930;6.940;2022-07-23T05:50:28;16.20;;;5.45;;
40883;SDS011;26602;50.930;6.940;2022-07-23T05:51:30;15.52;;;5.32;;
40883;SDS011;26602;50.930;6.940;2022-07-23T05:52:32;15.60;;;5.25;;
40883;SDS011;26602;50.930;6.940;2022-07-23T05:53:33;15.32;;;5.07;;
40883;SDS011;26602;50.930;6.940;2022-07-23T05:54:36;16.17;;;5.32;;
40883;SDS011;26602;50.930;6.940;2022-07-23T05:55:37;15.38;;;5.03;;
40883;SDS011;26602;50.930;6.940;2022-07-23T05:56:39;16.15;;;5.63;;
40883;SDS011;26602;50.930;6.940;2022-07-23T05:57:40;15.43;;;4.88;;
40883;SDS011;26602;50.930;6.940;2022-07-23T05:58:43;15.82;;;5.32;;
40883;SDS011;26602;50.930;6.940;2022-07-23T05:59:44;16.38;;;5.35;;
40883;SDS011;26602;50.930;6.940;2022-07-23T06:00:46;16.08;;;5.10;;
40883;SDS011;26602;50.930;6.940;2022-07-23T06:01:50;16.00;;;5.20;;
40883;SDS011;26602;50.930;6.940;2022-07-23T06:02:52;15.23;;;4.95;;
40883;SDS011;26602;50.930;6.940;2022-07-23T06:03:53;15.07;;;5.10;;
40883;SDS011;26602;50.930;6.940;2022-07-23T06:04:56;15.10;;;5.28;;
40883;SDS011;26602;50.930;6.940;2022-07-23T06:05:57;16.25;;;5.35;;
40883;SDS011;26602;50.930;6.940;2022-07-23T06:06:59;15.25;;;5.18;;